sensor_id;sensor_type;location;lat;lon;timestamp;temperature;humidity
79786;DHT22;69265;43.614;13.518;2023-12-20T15:02:45;9.20;77.70
79786;DHT22;69265;43.614;13.518;2023-12-20T15:05:11;9.00;77.60
79786;DHT22;69265;43.614;13.518;2023-12-20T15:07:36;9.00;77.30
79786;DHT22;69265;43.614;13.518;2023-12-20T15:10:03;9.00;77.60
79786;DHT22;69265;43.614;13.518;2023-12-20T15:12:28;9.10;77.50
79786;DHT22;69265;43.614;13.518;2023-12-20T15:14:54;9.20;77.00
79786;DHT22;69265;43.614;13.518;2023-12-20T15:17:19;9.20;76.70
79786;DHT22;69265;43.614;13.518;2023-12-20T15:19:45;9.30;76.40
79786;DHT22;69265;43.614;13.518;2023-12-20T15:22:10;9.40;75.90
79786;DHT22;69265;43.614;13.518;2023-12-20T15:24:36;9.40;75.70
79786;DHT22;69265;43.614;13.518;2023-12-20T15:27:07;9.40;75.50
79786;DHT22;69265;43.614;13.518;2023-12-20T15:29:33;9.40;75.10
79786;DHT22;69265;43.614;13.518;2023-12-20T15:31:58;9.40;75.00
79786;DHT22;69265;43.614;13.518;2023-12-20T15:34:24;9.40;74.50
79786;DHT22;69265;43.614;13.518;2023-12-20T15:36:49;9.40;74.30
79786;DHT22;69265;43.614;13.518;2023-12-20T15:39:15;9.40;73.60
79786;DHT22;69265;43.614;13.518;2023-12-20T15:41:41;9.40;73.30
79786;DHT22;69265;43.614;13.518;2023-12-20T15:44:06;9.40;73.10
79786;DHT22;69265;43.614;13.518;2023-12-20T15:46:32;9.40;73.00
79786;DHT22;69265;43.614;13.518;2023-12-20T15:48:57;9.50;72.90
79786;DHT22;69265;43.614;13.518;2023-12-20T15:51:23;9.50;73.50
79786;DHT22;69265;43.614;13.518;2023-12-20T15:53:49;9.60;73.50
79786;DHT22;69265;43.614;13.518;2023-12-20T15:56:15;9.60;73.00
79786;DHT22;69265;43.614;13.518;2023-12-20T15:58:41;9.60;72.80
79786;DHT22;69265;43.614;13.518;2023-12-20T16:01:06;9.70;72.30
79786;DHT22;69265;43.614;13.518;2023-12-20T16:03:32;9.70;71.70
79786;DHT22;69265;43.614;13.518;2023-12-20T16:05:58;9.70;71.60
79786;DHT22;69265;43.614;13.518;2023-12-20T16:08:24;9.60;71.10
79786;DHT22;69265;43.614;13.518;2023-12-20T16:10:49;9.60;70.30
79786;DHT22;69265;43.614;13.518;2023-12-20T16:13:15;9.50;69.70
79786;DHT22;69265;43.614;13.518;2023-12-20T16:15:41;9.50;69.00
79786;DHT22;69265;43.614;13.518;2023-12-20T16:18:06;9.50;68.70
79786;DHT22;69265;43.614;13.518;2023-12-20T16:20:39;9.40;68.50
79786;DHT22;69265;43.614;13.518;2023-12-20T16:23:05;9.40;68.30
79786;DHT22;69265;43.614;13.518;2023-12-20T16:25:30;9.40;68.40
79786;DHT22;69265;43.614;13.518;2023-12-20T16:27:56;9.40;68.50
79786;DHT22;69265;43.614;13.518;2023-12-20T16:30:22;9.40;67.70
79786;DHT22;69265;43.614;13.518;2023-12-20T16:32:47;9.40;67.90
79786;DHT22;69265;43.614;13.518;2023-12-20T16:35:13;9.40;68.00
79786;DHT22;69265;43.614;13.518;2023-12-20T16:37:39;9.30;68.30
79786;DHT22;69265;43.614;13.518;2023-12-20T16:40:05;9.30;68.40
79786;DHT22;69265;43.614;13.518;2023-12-20T16:42:30;9.30;68.60
79786;DHT22;69265;43.614;13.518;2023-12-20T16:44:56;9.30;68.70
79786;DHT22;69265;43.614;13.518;2023-12-20T16:47:21;9.30;69.00
79786;DHT22;69265;43.614;13.518;2023-12-20T16:49:47;9.20;69.30
79786;DHT22;69265;43.614;13.518;2023-12-20T16:52:13;9.20;69.50
79786;DHT22;69265;43.614;13.518;2023-12-20T16:54:39;9.20;69.60
79786;DHT22;69265;43.614;13.518;2023-12-20T16:57:04;9.20;69.90
79786;DHT22;69265;43.614;13.518;2023-12-20T16:59:30;9.20;70.40
79786;DHT22;69265;43.614;13.518;2023-12-20T17:01:55;9.20;70.40
79786;DHT22;69265;43.614;13.518;2023-12-20T17:04:21;9.20;70.50
79786;DHT22;69265;43.614;13.518;2023-12-20T17:06:48;9.20;70.10
79786;DHT22;69265;43.614;13.518;2023-12-20T17:09:14;9.20;69.90
79786;DHT22;69265;43.614;13.518;2023-12-20T17:11:41;9.20;69.80
79786;DHT22;69265;43.614;13.518;2023-12-20T17:14:07;9.20;70.10
79786;DHT22;69265;43.614;13.518;2023-12-20T17:16:35;9.20;70.50
79786;DHT22;69265;43.614;13.518;2023-12-20T17:19:02;9.20;70.70
79786;DHT22;69265;43.614;13.518;2023-12-20T17:21:29;9.20;71.20
79786;DHT22;69265;43.614;13.518;2023-12-20T17:23:55;9.20;71.60
79786;DHT22;69265;43.614;13.518;2023-12-20T17:26:21;9.20;71.80
79786;DHT22;69265;43.614;13.518;2023-12-20T17:28:46;9.20;71.80
79786;DHT22;69265;43.614;13.518;2023-12-20T17:31:12;9.20;72.10
79786;DHT22;69265;43.614;13.518;2023-12-20T17:33:37;9.10;71.90
79786;DHT22;69265;43.614;13.518;2023-12-20T17:36:03;9.10;72.30
79786;DHT22;69265;43.614;13.518;2023-12-20T17:38:28;9.10;72.70
79786;DHT22;69265;43.614;13.518;2023-12-20T17:40:54;9.10;73.00
79786;DHT22;69265;43.614;13.518;2023-12-20T17:43:20;9.10;72.80
79786;DHT22;69265;43.614;13.518;2023-12-20T17:45:45;9.00;73.20
79786;DHT22;69265;43.614;13.518;2023-12-20T17:48:11;9.00;73.60
79786;DHT22;69265;43.614;13.518;2023-12-20T17:50:36;9.00;73.70
79786;DHT22;69265;43.614;13.518;2023-12-20T17:53:02;9.00;73.70
79786;DHT22;69265;43.614;13.518;2023-12-20T17:55:28;9.00;73.90
79786;DHT22;69265;43.614;13.518;2023-12-20T17:57:54;9.00;73.90
79786;DHT22;69265;43.614;13.518;2023-12-20T18:00:20;9.00;74.00
79786;DHT22;69265;43.614;13.518;2023-12-20T18:02:46;9.00;74.10
79786;DHT22;69265;43.614;13.518;2023-12-20T18:05:12;9.00;74.10
79786;DHT22;69265;43.614;13.518;2023-12-20T18:07:38;9.00;73.70
79786;DHT22;69265;43.614;13.518;2023-12-20T18:10:04;9.00;73.80
79786;DHT22;69265;43.614;13.518;2023-12-20T18:12:29;9.00;73.60
79786;DHT22;69265;43.614;13.518;2023-12-20T18:14:55;9.00;73.60
79786;DHT22;69265;43.614;13.518;2023-12-20T18:17:20;9.00;73.50
79786;DHT22;69265;43.614;13.518;2023-12-20T18:19:46;9.00;73.40
79786;DHT22;69265;43.614;13.518;2023-12-20T18:22:12;9.00;73.20
79786;DHT22;69265;43.614;13.518;2023-12-20T18:24:38;9.00;73.30
79786;DHT22;69265;43.614;13.518;2023-12-20T18:27:03;9.00;73.10
79786;DHT22;69265;43.614;13.518;2023-12-20T18:29:29;9.10;72.90
79786;DHT22;69265;43.614;13.518;2023-12-20T18:31:54;9.10;72.70
79786;DHT22;69265;43.614;13.518;2023-12-20T18:34:20;9.20;72.40
79786;DHT22;69265;43.614;13.518;2023-12-20T18:36:45;9.10;72.10
79786;DHT22;69265;43.614;13.518;2023-12-20T18:39:13;9.10;71.90
79786;DHT22;69265;43.614;13.518;2023-12-20T18:41:38;9.20;71.80
79786;DHT22;69265;43.614;13.518;2023-12-20T18:44:07;9.10;71.50
79786;DHT22;69265;43.614;13.518;2023-12-20T18:46:32;9.10;71.20
79786;DHT22;69265;43.614;13.518;2023-12-20T18:48:58;9.20;71.10
79786;DHT22;69265;43.614;13.518;2023-12-20T18:51:23;9.10;70.80
79786;DHT22;69265;43.614;13.518;2023-12-20T18:53:49;9.10;70.50
79786;DHT22;69265;43.614;13.518;2023-12-20T18:56:14;9.10;70.20
79786;DHT22;69265;43.614;13.518;2023-12-20T18:58:40;9.10;69.70
79786;DHT22;69265;43.614;13.518;2023-12-20T19:01:06;9.10;69.30
79786;DHT22;69265;43.614;13.518;2023-12-20T19:03:31;9.10;69.30
79786;DHT22;69265;43.614;13.518;2023-12-20T19:05:57;9.10;68.70
79786;DHT22;69265;43.614;13.518;2023-12-20T19:08:24;9.10;68.50
79786;DHT22;69265;43.614;13.518;2023-12-20T19:10:49;9.00;68.40
79786;DHT22;69265;43.614;13.518;2023-12-20T19:13:16;9.00;68.40
79786;DHT22;69265;43.614;13.518;2023-12-20T19:15:41;9.00;68.00
79786;DHT22;69265;43.614;13.518;2023-12-20T19:18:07;9.00;68.00
79786;DHT22;69265;43.614;13.518;2023-12-20T19:20:32;9.00;67.70
79786;DHT22;69265;43.614;13.518;2023-12-20T19:22:58;9.00;67.80
79786;DHT22;69265;43.614;13.518;2023-12-20T19:25:23;9.00;67.60
79786;DHT22;69265;43.614;13.518;2023-12-20T19:27:49;9.00;66.60
79786;DHT22;69265;43.614;13.518;2023-12-20T19:30:14;9.00;67.20
79786;DHT22;69265;43.614;13.518;2023-12-20T19:32:40;9.00;66.90
79786;DHT22;69265;43.614;13.518;2023-12-20T19:35:05;9.00;66.90
79786;DHT22;69265;43.614;13.518;2023-12-20T19:37:31;9.00;66.50
79786;DHT22;69265;43.614;13.518;2023-12-20T19:39:57;9.00;66.10
79786;DHT22;69265;43.614;13.518;2023-12-20T19:42:23;9.10;65.70
79786;DHT22;69265;43.614;13.518;2023-12-20T19:44:50;9.10;66.00
79786;DHT22;69265;43.614;13.518;2023-12-20T19:47:16;9.10;65.50
79786;DHT22;69265;43.614;13.518;2023-12-20T19:49:41;9.10;65.40
79786;DHT22;69265;43.614;13.518;2023-12-20T19:52:07;9.10;65.30
79786;DHT22;69265;43.614;13.518;2023-12-20T19:54:33;9.10;65.30
79786;DHT22;69265;43.614;13.518;2023-12-20T19:56:58;9.10;65.10
79786;DHT22;69265;43.614;13.518;2023-12-20T19:59:24;9.10;64.50
79786;DHT22;69265;43.614;13.518;2023-12-20T20:01:49;9.20;64.10
79786;DHT22;69265;43.614;13.518;2023-12-20T20:04:15;9.20;63.90
79786;DHT22;69265;43.614;13.518;2023-12-20T20:06:40;9.20;64.00
79786;DHT22;69265;43.614;13.518;2023-12-20T20:09:06;9.20;63.70
79786;DHT22;69265;43.614;13.518;2023-12-20T20:11:31;9.20;63.00
79786;DHT22;69265;43.614;13.518;2023-12-20T20:13:57;9.10;62.70
79786;DHT22;69265;43.614;13.518;2023-12-20T20:16:23;9.10;61.80
79786;DHT22;69265;43.614;13.518;2023-12-20T20:18:48;9.10;62.20
79786;DHT22;69265;43.614;13.518;2023-12-20T20:21:14;9.10;61.70
79786;DHT22;69265;43.614;13.518;2023-12-20T20:23:39;9.00;61.20
79786;DHT22;69265;43.614;13.518;2023-12-20T20:26:05;9.00;61.20
79786;DHT22;69265;43.614;13.518;2023-12-20T20:28:30;9.00;60.10
79786;DHT22;69265;43.614;13.518;2023-12-20T20:30:56;9.00;60.50
79786;DHT22;69265;43.614;13.518;2023-12-20T20:33:30;9.00;60.70
79786;DHT22;69265;43.614;13.518;2023-12-20T20:35:56;9.00;60.30
79786;DHT22;69265;43.614;13.518;2023-12-20T20:38:21;9.00;60.30
79786;DHT22;69265;43.614;13.518;2023-12-20T20:40:47;9.00;60.40
79786;DHT22;69265;43.614;13.518;2023-12-20T20:43:13;8.90;60.90
79786;DHT22;69265;43.614;13.518;2023-12-20T20:45:39;8.90;61.20
79786;DHT22;69265;43.614;13.518;2023-12-20T20:48:04;8.80;61.10
79786;DHT22;69265;43.614;13.518;2023-12-20T20:50:30;8.80;61.20
79786;DHT22;69265;43.614;13.518;2023-12-20T20:52:55;8.70;61.60
79786;DHT22;69265;43.614;13.518;2023-12-20T20:55:21;8.60;61.80
79786;DHT22;69265;43.614;13.518;2023-12-20T20:57:46;8.60;61.90
79786;DHT22;69265;43.614;13.518;2023-12-20T21:00:15;8.50;62.00
79786;DHT22;69265;43.614;13.518;2023-12-20T21:02:41;8.50;62.30
79786;DHT22;69265;43.614;13.518;2023-12-20T21:05:07;8.50;62.50
79786;DHT22;69265;43.614;13.518;2023-12-20T21:07:32;8.40;62.70
79786;DHT22;69265;43.614;13.518;2023-12-20T21:10:01;8.40;62.70
79786;DHT22;69265;43.614;13.518;2023-12-20T21:12:27;8.40;63.00
79786;DHT22;69265;43.614;13.518;2023-12-20T21:14:53;8.30;63.20
79786;DHT22;69265;43.614;13.518;2023-12-20T21:17:19;8.30;63.20
79786;DHT22;69265;43.614;13.518;2023-12-20T21:19:45;8.30;63.20
79786;DHT22;69265;43.614;13.518;2023-12-20T21:22:10;8.30;63.20
79786;DHT22;69265;43.614;13.518;2023-12-20T21:24:36;8.30;63.30
79786;DHT22;69265;43.614;13.518;2023-12-20T21:27:01;8.30;63.10
79786;DHT22;69265;43.614;13.518;2023-12-20T21:29:27;8.40;62.70
79786;DHT22;69265;43.614;13.518;2023-12-20T21:31:52;8.40;62.50
79786;DHT22;69265;43.614;13.518;2023-12-20T21:34:18;8.40;62.20
79786;DHT22;69265;43.614;13.518;2023-12-20T21:36:43;8.50;62.20
79786;DHT22;69265;43.614;13.518;2023-12-20T21:39:09;8.50;62.00
79786;DHT22;69265;43.614;13.518;2023-12-20T21:41:34;8.60;62.00
79786;DHT22;69265;43.614;13.518;2023-12-20T21:44:00;8.60;62.00
79786;DHT22;69265;43.614;13.518;2023-12-20T21:46:25;8.60;61.80
79786;DHT22;69265;43.614;13.518;2023-12-20T21:48:51;8.60;61.90
79786;DHT22;69265;43.614;13.518;2023-12-20T21:51:17;8.70;62.10
79786;DHT22;69265;43.614;13.518;2023-12-20T21:53:43;8.80;62.30
79786;DHT22;69265;43.614;13.518;2023-12-20T21:56:08;8.80;62.50
79786;DHT22;69265;43.614;13.518;2023-12-20T21:58:36;8.80;62.50
79786;DHT22;69265;43.614;13.518;2023-12-20T22:01:02;8.80;62.50
79786;DHT22;69265;43.614;13.518;2023-12-20T22:03:27;8.80;62.30
79786;DHT22;69265;43.614;13.518;2023-12-20T22:05:53;8.80;62.50
79786;DHT22;69265;43.614;13.518;2023-12-20T22:08:18;8.80;62.60
79786;DHT22;69265;43.614;13.518;2023-12-20T22:10:44;8.80;62.80
79786;DHT22;69265;43.614;13.518;2023-12-20T22:13:10;8.80;63.00
79786;DHT22;69265;43.614;13.518;2023-12-20T22:15:35;8.80;63.20
79786;DHT22;69265;43.614;13.518;2023-12-20T22:18:01;8.90;63.20
79786;DHT22;69265;43.614;13.518;2023-12-20T22:20:27;8.90;63.40
79786;DHT22;69265;43.614;13.518;2023-12-20T22:22:52;8.90;63.50
79786;DHT22;69265;43.614;13.518;2023-12-20T22:25:18;8.90;63.30
79786;DHT22;69265;43.614;13.518;2023-12-20T22:27:44;8.80;63.30
79786;DHT22;69265;43.614;13.518;2023-12-20T22:30:09;8.90;63.20
79786;DHT22;69265;43.614;13.518;2023-12-20T22:32:35;8.90;63.10
79786;DHT22;69265;43.614;13.518;2023-12-20T22:35:01;8.90;63.00
79786;DHT22;69265;43.614;13.518;2023-12-20T22:37:26;8.90;62.90
79786;DHT22;69265;43.614;13.518;2023-12-20T22:39:52;8.90;62.60
79786;DHT22;69265;43.614;13.518;2023-12-20T22:42:17;8.90;62.70
79786;DHT22;69265;43.614;13.518;2023-12-20T22:44:43;8.90;62.70
79786;DHT22;69265;43.614;13.518;2023-12-20T22:47:09;8.90;62.60
79786;DHT22;69265;43.614;13.518;2023-12-20T22:49:35;8.90;62.20
79786;DHT22;69265;43.614;13.518;2023-12-20T22:52:01;8.90;62.50
79786;DHT22;69265;43.614;13.518;2023-12-20T22:54:27;8.90;62.40
79786;DHT22;69265;43.614;13.518;2023-12-20T22:56:52;8.90;62.70
79786;DHT22;69265;43.614;13.518;2023-12-20T22:59:20;8.90;62.80
79786;DHT22;69265;43.614;13.518;2023-12-20T23:01:45;8.90;63.10
79786;DHT22;69265;43.614;13.518;2023-12-20T23:04:11;8.90;63.30
79786;DHT22;69265;43.614;13.518;2023-12-20T23:06:36;8.90;63.50
79786;DHT22;69265;43.614;13.518;2023-12-20T23:09:02;8.90;63.70
79786;DHT22;69265;43.614;13.518;2023-12-20T23:11:28;8.90;63.70
79786;DHT22;69265;43.614;13.518;2023-12-20T23:13:54;8.90;63.80
79786;DHT22;69265;43.614;13.518;2023-12-20T23:16:19;8.90;64.20
79786;DHT22;69265;43.614;13.518;2023-12-20T23:18:45;8.90;64.00
79786;DHT22;69265;43.614;13.518;2023-12-20T23:21:13;8.90;64.00
79786;DHT22;69265;43.614;13.518;2023-12-20T23:23:38;8.90;63.80
79786;DHT22;69265;43.614;13.518;2023-12-20T23:26:04;8.90;63.30
79786;DHT22;69265;43.614;13.518;2023-12-20T23:28:29;8.90;63.20
79786;DHT22;69265;43.614;13.518;2023-12-20T23:30:55;8.80;63.00
79786;DHT22;69265;43.614;13.518;2023-12-20T23:33:20;8.80;62.60
79786;DHT22;69265;43.614;13.518;2023-12-20T23:35:46;8.80;62.20
79786;DHT22;69265;43.614;13.518;2023-12-20T23:38:11;8.80;62.20
